CPB8 weather

Paramount Bistcho Airport
Paramount Bistcho, Alberta, Canada

Public forecast

Using degrees Celsius for public forecast. Weather courtesy of forecast.io.

Closest aviation weather report (METAR) to Paramount Bistcho Airport

Closest report is High Level Airport, 70.9 nm (131.2 km) SSE. Retrieved 2019/10/21 09:00 UTC (34 minutes ago):

CYOJ 210900Z AUTO 00000KT 9SM OVC026 00/M00 A2983 RMK SLP122

Closest aviation forecast (TAF) to Paramount Bistcho Airport

Closest forecast is High Level Airport, 70.9 nm (131.2 km) SSE. Retrieved 2019/10/21 07:39 UTC (2 hours ago):

TAF CYOJ 210638Z 2107/2119 VRB03KT P6SM OVC025 TEMPO 2107/2110 5SM -SN BR OVC015 FM211000 VRB03KT P6SM OVC015 TEMPO 2110/2119 2SM -SN OVC006 RMK FCST BASED ON AUTO OBS NXT FCST BY 211300Z